sensor_id;sensor_type;location;lat;lon;timestamp;P1;durP1;ratioP1;P2;durP2;ratioP2
9409;SDS011;4744;52.576;13.568;2022-08-23T00:02:07;2.97;;;2.67;;
9409;SDS011;4744;52.576;13.568;2022-08-23T00:04:37;2.85;;;2.65;;
9409;SDS011;4744;52.576;13.568;2022-08-23T00:07:06;4.22;;;3.08;;
9409;SDS011;4744;52.576;13.568;2022-08-23T00:09:36;2.92;;;2.72;;
9409;SDS011;4744;52.576;13.568;2022-08-23T00:12:05;3.55;;;3.20;;
9409;SDS011;4744;52.576;13.568;2022-08-23T00:14:35;3.72;;;2.95;;
9409;SDS011;4744;52.576;13.568;2022-08-23T00:17:04;3.42;;;2.92;;
9409;SDS011;4744;52.576;13.568;2022-08-23T00:19:33;6.35;;;3.20;;
9409;SDS011;4744;52.576;13.568;2022-08-23T00:22:00;3.15;;;2.95;;
9409;SDS011;4744;52.576;13.568;2022-08-23T00:24:27;3.97;;;3.17;;
9409;SDS011;4744;52.576;13.568;2022-08-23T00:26:57;3.47;;;2.92;;
9409;SDS011;4744;52.576;13.568;2022-08-23T00:29:26;3.50;;;2.95;;
9409;SDS011;4744;52.576;13.568;2022-08-23T00:31:55;3.45;;;3.00;;
9409;SDS011;4744;52.576;13.568;2022-08-23T00:34:23;4.97;;;3.00;;
9409;SDS011;4744;52.576;13.568;2022-08-23T00:36:50;4.63;;;3.47;;
9409;SDS011;4744;52.576;13.568;2022-08-23T00:39:17;3.80;;;3.10;;
9409;SDS011;4744;52.576;13.568;2022-08-23T00:41:45;4.90;;;3.00;;
9409;SDS011;4744;52.576;13.568;2022-08-23T00:44:15;4.35;;;3.55;;
9409;SDS011;4744;52.576;13.568;2022-08-23T00:47:03;3.70;;;3.40;;
9409;SDS011;4744;52.576;13.568;2022-08-23T00:49:51;3.88;;;3.47;;
9409;SDS011;4744;52.576;13.568;2022-08-23T00:52:24;3.70;;;3.38;;
9409;SDS011;4744;52.576;13.568;2022-08-23T00:54:57;4.50;;;3.53;;
9409;SDS011;4744;52.576;13.568;2022-08-23T00:57:24;3.80;;;3.50;;
9409;SDS011;4744;52.576;13.568;2022-08-23T00:59:54;3.92;;;3.30;;
9409;SDS011;4744;52.576;13.568;2022-08-23T01:02:21;3.30;;;3.00;;
9409;SDS011;4744;52.576;13.568;2022-08-23T01:04:49;4.43;;;3.25;;
9409;SDS011;4744;52.576;13.568;2022-08-23T01:07:21;3.20;;;3.00;;
9409;SDS011;4744;52.576;13.568;2022-08-23T01:09:54;4.43;;;3.38;;
9409;SDS011;4744;52.576;13.568;2022-08-23T01:12:26;3.20;;;2.90;;
9409;SDS011;4744;52.576;13.568;2022-08-23T01:15:00;4.40;;;2.85;;
9409;SDS011;4744;52.576;13.568;2022-08-23T01:17:31;3.17;;;2.88;;
9409;SDS011;4744;52.576;13.568;2022-08-23T01:20:05;3.03;;;2.70;;
9409;SDS011;4744;52.576;13.568;2022-08-23T01:22:36;4.00;;;3.20;;
9409;SDS011;4744;52.576;13.568;2022-08-23T01:25:10;3.70;;;3.40;;
9409;SDS011;4744;52.576;13.568;2022-08-23T01:27:39;3.10;;;2.90;;
9409;SDS011;4744;52.576;13.568;2022-08-23T01:30:08;3.00;;;2.80;;
9409;SDS011;4744;52.576;13.568;2022-08-23T01:32:38;3.85;;;3.33;;
9409;SDS011;4744;52.576;13.568;2022-08-23T01:35:09;3.00;;;2.70;;
9409;SDS011;4744;52.576;13.568;2022-08-23T01:37:37;2.88;;;2.67;;
9409;SDS011;4744;52.576;13.568;2022-08-23T01:40:04;4.05;;;2.60;;
9409;SDS011;4744;52.576;13.568;2022-08-23T01:42:33;2.47;;;2.25;;
9409;SDS011;4744;52.576;13.568;2022-08-23T01:45:00;4.68;;;3.05;;
9409;SDS011;4744;52.576;13.568;2022-08-23T01:47:27;3.65;;;3.03;;
9409;SDS011;4744;52.576;13.568;2022-08-23T01:49:55;2.83;;;2.60;;
9409;SDS011;4744;52.576;13.568;2022-08-23T01:52:22;3.13;;;2.75;;
9409;SDS011;4744;52.576;13.568;2022-08-23T01:54:49;2.75;;;2.47;;
9409;SDS011;4744;52.576;13.568;2022-08-23T01:57:16;2.92;;;2.67;;
9409;SDS011;4744;52.576;13.568;2022-08-23T01:59:44;5.10;;;2.97;;
9409;SDS011;4744;52.576;13.568;2022-08-23T02:02:11;3.13;;;2.70;;
9409;SDS011;4744;52.576;13.568;2022-08-23T02:04:39;3.22;;;2.92;;
9409;SDS011;4744;52.576;13.568;2022-08-23T02:07:05;3.25;;;2.70;;
9409;SDS011;4744;52.576;13.568;2022-08-23T02:09:32;2.97;;;2.47;;
9409;SDS011;4744;52.576;13.568;2022-08-23T02:11:59;3.95;;;2.70;;
9409;SDS011;4744;52.576;13.568;2022-08-23T02:14:26;4.22;;;3.20;;
9409;SDS011;4744;52.576;13.568;2022-08-23T02:16:54;3.83;;;3.10;;
9409;SDS011;4744;52.576;13.568;2022-08-23T02:19:21;4.38;;;3.10;;
9409;SDS011;4744;52.576;13.568;2022-08-23T02:21:48;3.53;;;3.05;;
9409;SDS011;4744;52.576;13.568;2022-08-23T02:24:15;3.30;;;3.00;;
9409;SDS011;4744;52.576;13.568;2022-08-23T02:26:44;5.25;;;2.90;;
9409;SDS011;4744;52.576;13.568;2022-08-23T02:29:12;4.65;;;2.97;;
9409;SDS011;4744;52.576;13.568;2022-08-23T02:31:39;3.53;;;3.13;;
9409;SDS011;4744;52.576;13.568;2022-08-23T02:34:08;2.90;;;2.65;;
9409;SDS011;4744;52.576;13.568;2022-08-23T02:36:35;2.85;;;2.65;;
9409;SDS011;4744;52.576;13.568;2022-08-23T02:39:03;2.83;;;2.33;;
9409;SDS011;4744;52.576;13.568;2022-08-23T02:41:30;2.92;;;2.63;;
9409;SDS011;4744;52.576;13.568;2022-08-23T02:43:57;2.58;;;2.38;;
9409;SDS011;4744;52.576;13.568;2022-08-23T02:46:24;3.20;;;2.78;;
9409;SDS011;4744;52.576;13.568;2022-08-23T02:48:51;4.18;;;2.70;;
9409;SDS011;4744;52.576;13.568;2022-08-23T02:51:19;5.28;;;2.70;;
9409;SDS011;4744;52.576;13.568;2022-08-23T02:53:46;2.95;;;2.60;;
9409;SDS011;4744;52.576;13.568;2022-08-23T02:56:13;3.20;;;2.90;;
9409;SDS011;4744;52.576;13.568;2022-08-23T02:58:41;3.08;;;2.72;;
9409;SDS011;4744;52.576;13.568;2022-08-23T03:01:13;4.15;;;2.67;;
9409;SDS011;4744;52.576;13.568;2022-08-23T03:03:40;4.00;;;2.65;;
9409;SDS011;4744;52.576;13.568;2022-08-23T03:06:07;2.90;;;2.70;;
9409;SDS011;4744;52.576;13.568;2022-08-23T03:08:36;3.75;;;3.10;;
9409;SDS011;4744;52.576;13.568;2022-08-23T03:11:08;3.80;;;3.40;;
9409;SDS011;4744;52.576;13.568;2022-08-23T03:13:36;3.83;;;2.97;;
9409;SDS011;4744;52.576;13.568;2022-08-23T03:16:04;3.35;;;3.05;;
9409;SDS011;4744;52.576;13.568;2022-08-23T03:18:32;3.15;;;2.85;;
9409;SDS011;4744;52.576;13.568;2022-08-23T03:20:59;3.17;;;2.92;;
9409;SDS011;4744;52.576;13.568;2022-08-23T03:23:26;3.10;;;2.80;;
9409;SDS011;4744;52.576;13.568;2022-08-23T03:25:54;3.10;;;2.90;;
9409;SDS011;4744;52.576;13.568;2022-08-23T03:28:21;3.03;;;2.83;;
9409;SDS011;4744;52.576;13.568;2022-08-23T03:30:48;4.30;;;2.85;;
9409;SDS011;4744;52.576;13.568;2022-08-23T03:33:15;3.95;;;2.90;;
9409;SDS011;4744;52.576;13.568;2022-08-23T03:35:43;3.55;;;3.22;;
9409;SDS011;4744;52.576;13.568;2022-08-23T03:38:10;3.92;;;3.28;;
9409;SDS011;4744;52.576;13.568;2022-08-23T03:40:38;4.72;;;3.55;;
9409;SDS011;4744;52.576;13.568;2022-08-23T03:43:07;3.92;;;2.92;;
9409;SDS011;4744;52.576;13.568;2022-08-23T03:45:34;3.90;;;3.00;;
9409;SDS011;4744;52.576;13.568;2022-08-23T03:48:01;4.95;;;3.63;;
9409;SDS011;4744;52.576;13.568;2022-08-23T03:50:28;3.10;;;2.90;;
9409;SDS011;4744;52.576;13.568;2022-08-23T03:52:55;4.65;;;3.30;;
9409;SDS011;4744;52.576;13.568;2022-08-23T03:55:22;4.75;;;3.50;;
9409;SDS011;4744;52.576;13.568;2022-08-23T03:57:48;3.85;;;3.35;;
9409;SDS011;4744;52.576;13.568;2022-08-23T04:00:17;3.75;;;3.22;;
9409;SDS011;4744;52.576;13.568;2022-08-23T04:02:44;4.45;;;3.17;;
9409;SDS011;4744;52.576;13.568;2022-08-23T04:05:12;3.63;;;3.30;;
9409;SDS011;4744;52.576;13.568;2022-08-23T04:07:39;3.15;;;2.85;;
9409;SDS011;4744;52.576;13.568;2022-08-23T04:10:06;3.70;;;3.38;;
9409;SDS011;4744;52.576;13.568;2022-08-23T04:12:38;4.15;;;2.97;;
9409;SDS011;4744;52.576;13.568;2022-08-23T04:15:05;3.67;;;3.22;;
9409;SDS011;4744;52.576;13.568;2022-08-23T04:17:34;3.60;;;3.30;;
9409;SDS011;4744;52.576;13.568;2022-08-23T04:20:01;2.75;;;2.55;;
9409;SDS011;4744;52.576;13.568;2022-08-23T04:22:28;4.75;;;3.38;;
9409;SDS011;4744;52.576;13.568;2022-08-23T04:24:55;3.70;;;3.22;;
9409;SDS011;4744;52.576;13.568;2022-08-23T04:27:22;3.55;;;3.20;;
9409;SDS011;4744;52.576;13.568;2022-08-23T04:29:49;3.70;;;3.15;;
9409;SDS011;4744;52.576;13.568;2022-08-23T04:32:16;4.07;;;3.65;;
9409;SDS011;4744;52.576;13.568;2022-08-23T04:34:44;3.53;;;3.22;;
9409;SDS011;4744;52.576;13.568;2022-08-23T04:37:13;3.85;;;3.50;;
9409;SDS011;4744;52.576;13.568;2022-08-23T04:39:41;3.65;;;3.33;;
9409;SDS011;4744;52.576;13.568;2022-08-23T04:42:26;4.72;;;3.30;;
9409;SDS011;4744;52.576;13.568;2022-08-23T04:44:52;4.10;;;3.33;;
9409;SDS011;4744;52.576;13.568;2022-08-23T04:47:19;4.78;;;3.75;;
9409;SDS011;4744;52.576;13.568;2022-08-23T04:49:47;3.92;;;3.30;;
9409;SDS011;4744;52.576;13.568;2022-08-23T04:52:14;5.45;;;4.00;;
9409;SDS011;4744;52.576;13.568;2022-08-23T04:54:41;3.55;;;3.13;;
9409;SDS011;4744;52.576;13.568;2022-08-23T04:57:08;5.22;;;3.30;;
9409;SDS011;4744;52.576;13.568;2022-08-23T04:59:35;3.65;;;3.35;;
9409;SDS011;4744;52.576;13.568;2022-08-23T05:02:01;3.42;;;3.10;;
9409;SDS011;4744;52.576;13.568;2022-08-23T05:04:29;3.58;;;3.28;;
9409;SDS011;4744;52.576;13.568;2022-08-23T05:06:57;3.97;;;3.15;;
9409;SDS011;4744;52.576;13.568;2022-08-23T05:09:24;4.07;;;3.40;;
9409;SDS011;4744;52.576;13.568;2022-08-23T05:11:51;3.38;;;3.17;;
9409;SDS011;4744;52.576;13.568;2022-08-23T05:14:18;3.28;;;2.97;;
9409;SDS011;4744;52.576;13.568;2022-08-23T05:16:45;4.38;;;3.72;;
9409;SDS011;4744;52.576;13.568;2022-08-23T05:19:11;4.10;;;3.30;;
9409;SDS011;4744;52.576;13.568;2022-08-23T05:21:38;3.40;;;3.15;;
9409;SDS011;4744;52.576;13.568;2022-08-23T05:24:06;3.40;;;3.10;;
9409;SDS011;4744;52.576;13.568;2022-08-23T05:26:33;3.28;;;3.00;;
9409;SDS011;4744;52.576;13.568;2022-08-23T05:29:00;3.42;;;3.05;;
9409;SDS011;4744;52.576;13.568;2022-08-23T05:31:27;4.43;;;3.38;;
9409;SDS011;4744;52.576;13.568;2022-08-23T05:33:55;5.40;;;3.85;;
9409;SDS011;4744;52.576;13.568;2022-08-23T05:36:22;4.60;;;3.95;;
9409;SDS011;4744;52.576;13.568;2022-08-23T05:38:48;4.45;;;4.05;;
9409;SDS011;4744;52.576;13.568;2022-08-23T05:41:18;9.07;;;4.55;;
9409;SDS011;4744;52.576;13.568;2022-08-23T05:43:45;5.25;;;4.07;;
9409;SDS011;4744;52.576;13.568;2022-08-23T05:46:13;5.55;;;3.95;;
9409;SDS011;4744;52.576;13.568;2022-08-23T05:48:43;4.28;;;3.08;;
9409;SDS011;4744;52.576;13.568;2022-08-23T05:51:12;3.80;;;3.30;;
9409;SDS011;4744;52.576;13.568;2022-08-23T05:53:40;3.55;;;3.25;;
9409;SDS011;4744;52.576;13.568;2022-08-23T05:56:11;5.13;;;3.50;;
9409;SDS011;4744;52.576;13.568;2022-08-23T05:58:42;4.25;;;3.70;;
9409;SDS011;4744;52.576;13.568;2022-08-23T06:01:09;4.72;;;3.80;;
9409;SDS011;4744;52.576;13.568;2022-08-23T06:03:36;4.20;;;3.70;;
9409;SDS011;4744;52.576;13.568;2022-08-23T06:06:04;3.55;;;3.08;;
9409;SDS011;4744;52.576;13.568;2022-08-23T06:08:32;4.82;;;3.17;;
9409;SDS011;4744;52.576;13.568;2022-08-23T06:11:00;4.78;;;3.08;;
9409;SDS011;4744;52.576;13.568;2022-08-23T06:13:28;3.50;;;2.85;;
9409;SDS011;4744;52.576;13.568;2022-08-23T06:15:57;4.13;;;3.20;;
9409;SDS011;4744;52.576;13.568;2022-08-23T06:18:24;3.90;;;3.50;;
9409;SDS011;4744;52.576;13.568;2022-08-23T06:21:01;5.35;;;3.75;;
9409;SDS011;4744;52.576;13.568;2022-08-23T06:23:30;5.90;;;3.75;;
9409;SDS011;4744;52.576;13.568;2022-08-23T06:25:57;4.88;;;3.80;;
9409;SDS011;4744;52.576;13.568;2022-08-23T06:28:27;4.22;;;3.50;;
9409;SDS011;4744;52.576;13.568;2022-08-23T06:30:57;5.00;;;3.47;;
9409;SDS011;4744;52.576;13.568;2022-08-23T06:33:24;4.60;;;3.88;;
9409;SDS011;4744;52.576;13.568;2022-08-23T06:35:57;6.93;;;3.80;;
9409;SDS011;4744;52.576;13.568;2022-08-23T06:38:27;4.85;;;3.38;;
9409;SDS011;4744;52.576;13.568;2022-08-23T06:40:58;6.68;;;4.28;;
9409;SDS011;4744;52.576;13.568;2022-08-23T06:43:25;6.65;;;3.85;;
9409;SDS011;4744;52.576;13.568;2022-08-23T06:45:52;3.50;;;3.20;;
9409;SDS011;4744;52.576;13.568;2022-08-23T06:48:20;9.13;;;3.53;;
9409;SDS011;4744;52.576;13.568;2022-08-23T06:50:47;4.65;;;2.97;;
9409;SDS011;4744;52.576;13.568;2022-08-23T06:53:14;3.72;;;3.10;;
9409;SDS011;4744;52.576;13.568;2022-08-23T06:55:40;4.90;;;3.42;;
9409;SDS011;4744;52.576;13.568;2022-08-23T06:58:07;4.00;;;2.80;;
9409;SDS011;4744;52.576;13.568;2022-08-23T07:00:34;3.50;;;2.95;;
9409;SDS011;4744;52.576;13.568;2022-08-23T07:03:01;4.82;;;3.10;;
9409;SDS011;4744;52.576;13.568;2022-08-23T07:05:30;3.78;;;3.10;;
9409;SDS011;4744;52.576;13.568;2022-08-23T07:07:56;4.82;;;3.13;;
9409;SDS011;4744;52.576;13.568;2022-08-23T07:10:23;4.93;;;3.25;;
9409;SDS011;4744;52.576;13.568;2022-08-23T07:12:50;3.75;;;2.70;;
9409;SDS011;4744;52.576;13.568;2022-08-23T07:15:17;5.90;;;3.08;;
9409;SDS011;4744;52.576;13.568;2022-08-23T07:17:44;3.80;;;2.72;;
9409;SDS011;4744;52.576;13.568;2022-08-23T07:20:11;5.82;;;3.30;;
9409;SDS011;4744;52.576;13.568;2022-08-23T07:22:39;4.05;;;2.60;;
9409;SDS011;4744;52.576;13.568;2022-08-23T07:25:06;3.92;;;2.58;;
9409;SDS011;4744;52.576;13.568;2022-08-23T07:27:33;2.95;;;2.72;;
9409;SDS011;4744;52.576;13.568;2022-08-23T07:30:00;5.63;;;3.00;;
9409;SDS011;4744;52.576;13.568;2022-08-23T07:32:27;4.55;;;3.28;;
9409;SDS011;4744;52.576;13.568;2022-08-23T07:34:54;4.57;;;2.85;;
9409;SDS011;4744;52.576;13.568;2022-08-23T07:37:21;4.53;;;2.90;;
9409;SDS011;4744;52.576;13.568;2022-08-23T07:39:49;3.83;;;2.95;;
9409;SDS011;4744;52.576;13.568;2022-08-23T07:42:16;3.15;;;2.83;;
9409;SDS011;4744;52.576;13.568;2022-08-23T07:44:43;4.07;;;2.83;;
9409;SDS011;4744;52.576;13.568;2022-08-23T07:47:10;5.43;;;2.80;;
9409;SDS011;4744;52.576;13.568;2022-08-23T07:49:37;3.85;;;2.70;;
9409;SDS011;4744;52.576;13.568;2022-08-23T07:52:03;2.67;;;2.47;;
9409;SDS011;4744;52.576;13.568;2022-08-23T07:54:30;3.92;;;2.67;;
9409;SDS011;4744;52.576;13.568;2022-08-23T07:56:59;4.45;;;2.50;;
9409;SDS011;4744;52.576;13.568;2022-08-23T07:59:26;5.15;;;2.60;;
9409;SDS011;4744;52.576;13.568;2022-08-23T08:01:53;4.22;;;2.70;;
9409;SDS011;4744;52.576;13.568;2022-08-23T08:04:20;2.40;;;2.20;;
9409;SDS011;4744;52.576;13.568;2022-08-23T08:06:48;2.50;;;2.30;;
9409;SDS011;4744;52.576;13.568;2022-08-23T08:09:16;3.20;;;2.50;;
9409;SDS011;4744;52.576;13.568;2022-08-23T08:11:45;4.78;;;2.58;;
9409;SDS011;4744;52.576;13.568;2022-08-23T08:14:15;4.85;;;2.85;;
9409;SDS011;4744;52.576;13.568;2022-08-23T08:16:43;5.22;;;2.60;;
9409;SDS011;4744;52.576;13.568;2022-08-23T08:19:13;4.07;;;2.35;;
9409;SDS011;4744;52.576;13.568;2022-08-23T08:21:42;4.57;;;2.80;;
9409;SDS011;4744;52.576;13.568;2022-08-23T08:24:11;2.70;;;2.50;;
9409;SDS011;4744;52.576;13.568;2022-08-23T08:26:40;3.03;;;2.25;;
9409;SDS011;4744;52.576;13.568;2022-08-23T08:29:08;3.75;;;2.28;;
9409;SDS011;4744;52.576;13.568;2022-08-23T08:31:37;2.75;;;2.50;;
9409;SDS011;4744;52.576;13.568;2022-08-23T08:34:04;2.70;;;2.42;;
9409;SDS011;4744;52.576;13.568;2022-08-23T08:36:33;2.80;;;2.20;;
9409;SDS011;4744;52.576;13.568;2022-08-23T08:39:03;2.67;;;2.42;;
9409;SDS011;4744;52.576;13.568;2022-08-23T08:41:45;5.22;;;2.53;;
9409;SDS011;4744;52.576;13.568;2022-08-23T08:44:26;3.85;;;2.30;;
9409;SDS011;4744;52.576;13.568;2022-08-23T08:47:03;2.85;;;2.33;;
9409;SDS011;4744;52.576;13.568;2022-08-23T08:49:35;4.60;;;2.50;;
9409;SDS011;4744;52.576;13.568;2022-08-23T08:52:10;3.15;;;2.30;;
9409;SDS011;4744;52.576;13.568;2022-08-23T08:54:41;3.40;;;2.30;;
9409;SDS011;4744;52.576;13.568;2022-08-23T08:57:10;3.55;;;2.30;;
9409;SDS011;4744;52.576;13.568;2022-08-23T08:59:43;4.57;;;2.35;;
9409;SDS011;4744;52.576;13.568;2022-08-23T09:02:18;3.10;;;2.50;;
9409;SDS011;4744;52.576;13.568;2022-08-23T09:04:46;3.58;;;2.72;;
9409;SDS011;4744;52.576;13.568;2022-08-23T09:07:15;4.80;;;2.55;;
9409;SDS011;4744;52.576;13.568;2022-08-23T09:12:37;5.30;;;2.35;;
9409;SDS011;4744;52.576;13.568;2022-08-23T09:15:13;2.38;;;2.08;;
9409;SDS011;4744;52.576;13.568;2022-08-23T09:17:48;2.45;;;2.20;;
9409;SDS011;4744;52.576;13.568;2022-08-23T09:20:19;3.03;;;2.35;;
9409;SDS011;4744;52.576;13.568;2022-08-23T09:22:48;4.15;;;2.85;;
9409;SDS011;4744;52.576;13.568;2022-08-23T09:25:18;3.78;;;2.22;;
9409;SDS011;4744;52.576;13.568;2022-08-23T09:27:45;4.47;;;2.42;;
9409;SDS011;4744;52.576;13.568;2022-08-23T09:30:13;5.90;;;2.78;;
9409;SDS011;4744;52.576;13.568;2022-08-23T09:32:43;2.55;;;2.30;;
9409;SDS011;4744;52.576;13.568;2022-08-23T09:35:16;3.72;;;2.15;;
9409;SDS011;4744;52.576;13.568;2022-08-23T09:37:56;4.18;;;2.40;;
9409;SDS011;4744;52.576;13.568;2022-08-23T09:40:27;3.83;;;2.63;;
9409;SDS011;4744;52.576;13.568;2022-08-23T09:43:02;3.00;;;2.70;;
9409;SDS011;4744;52.576;13.568;2022-08-23T09:45:39;3.10;;;2.40;;
9409;SDS011;4744;52.576;13.568;2022-08-23T09:48:30;3.45;;;2.60;;
9409;SDS011;4744;52.576;13.568;2022-08-23T09:51:04;2.40;;;2.20;;
9409;SDS011;4744;52.576;13.568;2022-08-23T09:53:34;3.22;;;2.65;;
9409;SDS011;4744;52.576;13.568;2022-08-23T09:56:08;4.88;;;2.50;;
9409;SDS011;4744;52.576;13.568;2022-08-23T09:58:39;3.20;;;2.70;;
9409;SDS011;4744;52.576;13.568;2022-08-23T10:01:08;2.53;;;2.35;;
9409;SDS011;4744;52.576;13.568;2022-08-23T10:03:37;2.40;;;2.20;;
9409;SDS011;4744;52.576;13.568;2022-08-23T10:06:07;3.08;;;2.88;;
9409;SDS011;4744;52.576;13.568;2022-08-23T10:08:37;3.60;;;3.20;;
9409;SDS011;4744;52.576;13.568;2022-08-23T10:11:17;4.72;;;3.15;;
9409;SDS011;4744;52.576;13.568;2022-08-23T10:13:46;3.47;;;3.17;;
9409;SDS011;4744;52.576;13.568;2022-08-23T10:16:15;3.80;;;3.15;;
9409;SDS011;4744;52.576;13.568;2022-08-23T10:18:52;4.22;;;3.40;;
9409;SDS011;4744;52.576;13.568;2022-08-23T10:21:28;3.65;;;2.90;;
9409;SDS011;4744;52.576;13.568;2022-08-23T10:24:08;2.85;;;2.65;;
9409;SDS011;4744;52.576;13.568;2022-08-23T10:26:44;3.22;;;2.92;;
9409;SDS011;4744;52.576;13.568;2022-08-23T10:29:18;3.78;;;3.15;;
9409;SDS011;4744;52.576;13.568;2022-08-23T10:32:16;3.53;;;3.10;;
9409;SDS011;4744;52.576;13.568;2022-08-23T10:34:52;3.50;;;2.90;;
9409;SDS011;4744;52.576;13.568;2022-08-23T10:37:34;2.67;;;2.38;;
9409;SDS011;4744;52.576;13.568;2022-08-23T10:40:13;3.13;;;2.80;;
9409;SDS011;4744;52.576;13.568;2022-08-23T10:42:47;3.60;;;2.72;;
9409;SDS011;4744;52.576;13.568;2022-08-23T10:45:24;4.55;;;2.70;;
9409;SDS011;4744;52.576;13.568;2022-08-23T10:47:56;3.05;;;2.70;;
9409;SDS011;4744;52.576;13.568;2022-08-23T10:50:43;2.50;;;2.30;;
9409;SDS011;4744;52.576;13.568;2022-08-23T10:53:16;3.35;;;2.58;;
9409;SDS011;4744;52.576;13.568;2022-08-23T10:55:45;2.85;;;2.65;;
9409;SDS011;4744;52.576;13.568;2022-08-23T10:58:29;2.92;;;2.53;;
9409;SDS011;4744;52.576;13.568;2022-08-23T11:01:02;3.53;;;2.47;;
9409;SDS011;4744;52.576;13.568;2022-08-23T11:03:31;3.88;;;2.20;;
9409;SDS011;4744;52.576;13.568;2022-08-23T11:09:06;2.80;;;2.15;;
9409;SDS011;4744;52.576;13.568;2022-08-23T11:11:39;2.83;;;2.60;;
9409;SDS011;4744;52.576;13.568;2022-08-23T11:14:09;2.60;;;2.40;;
9409;SDS011;4744;52.576;13.568;2022-08-23T11:16:53;4.38;;;2.38;;
9409;SDS011;4744;52.576;13.568;2022-08-23T11:22:12;3.13;;;2.78;;
9409;SDS011;4744;52.576;13.568;2022-08-23T11:24:56;4.38;;;2.65;;
9409;SDS011;4744;52.576;13.568;2022-08-23T11:27:26;2.58;;;2.20;;
9409;SDS011;4744;52.576;13.568;2022-08-23T11:32:59;2.80;;;2.60;;
9409;SDS011;4744;52.576;13.568;2022-08-23T11:38:14;3.30;;;2.85;;
9409;SDS011;4744;52.576;13.568;2022-08-23T11:43:46;3.83;;;2.72;;
9409;SDS011;4744;52.576;13.568;2022-08-23T11:46:19;2.63;;;2.20;;
9409;SDS011;4744;52.576;13.568;2022-08-23T11:48:58;2.58;;;2.38;;
9409;SDS011;4744;52.576;13.568;2022-08-23T11:51:42;3.97;;;2.30;;
9409;SDS011;4744;52.576;13.568;2022-08-23T11:54:28;4.15;;;2.40;;
9409;SDS011;4744;52.576;13.568;2022-08-23T11:57:24;2.30;;;2.10;;
9409;SDS011;4744;52.576;13.568;2022-08-23T12:00:03;3.13;;;2.15;;
9409;SDS011;4744;52.576;13.568;2022-08-23T12:02:43;4.93;;;2.08;;
9409;SDS011;4744;52.576;13.568;2022-08-23T12:05:18;3.00;;;1.95;;
9409;SDS011;4744;52.576;13.568;2022-08-23T12:11:03;2.45;;;2.00;;
9409;SDS011;4744;52.576;13.568;2022-08-23T12:13:50;3.35;;;1.80;;
9409;SDS011;4744;52.576;13.568;2022-08-23T12:16:30;3.35;;;2.10;;
9409;SDS011;4744;52.576;13.568;2022-08-23T12:19:06;3.58;;;1.95;;
9409;SDS011;4744;52.576;13.568;2022-08-23T12:21:40;2.75;;;1.67;;
9409;SDS011;4744;52.576;13.568;2022-08-23T12:24:14;4.28;;;1.90;;
9409;SDS011;4744;52.576;13.568;2022-08-23T12:26:51;1.98;;;1.70;;
9409;SDS011;4744;52.576;13.568;2022-08-23T12:29:27;2.97;;;1.85;;
9409;SDS011;4744;52.576;13.568;2022-08-23T12:32:02;3.53;;;1.80;;
9409;SDS011;4744;52.576;13.568;2022-08-23T12:34:37;2.83;;;1.70;;
9409;SDS011;4744;52.576;13.568;2022-08-23T12:37:14;3.22;;;1.58;;
9409;SDS011;4744;52.576;13.568;2022-08-23T12:39:47;1.83;;;1.70;;
9409;SDS011;4744;52.576;13.568;2022-08-23T12:42:18;3.05;;;1.80;;
9409;SDS011;4744;52.576;13.568;2022-08-23T12:44:59;1.83;;;1.67;;
9409;SDS011;4744;52.576;13.568;2022-08-23T12:47:30;2.35;;;1.50;;
9409;SDS011;4744;52.576;13.568;2022-08-23T12:49:58;1.60;;;1.50;;
9409;SDS011;4744;52.576;13.568;2022-08-23T12:52:29;4.38;;;1.67;;
9409;SDS011;4744;52.576;13.568;2022-08-23T12:54:58;2.58;;;1.70;;
9409;SDS011;4744;52.576;13.568;2022-08-23T12:57:28;1.83;;;1.70;;
9409;SDS011;4744;52.576;13.568;2022-08-23T13:00:05;1.40;;;1.30;;
9409;SDS011;4744;52.576;13.568;2022-08-23T13:02:43;1.60;;;1.50;;
9409;SDS011;4744;52.576;13.568;2022-08-23T13:05:19;2.22;;;1.70;;
9409;SDS011;4744;52.576;13.568;2022-08-23T13:07:51;2.20;;;1.50;;
9409;SDS011;4744;52.576;13.568;2022-08-23T13:10:18;3.50;;;1.90;;
9409;SDS011;4744;52.576;13.568;2022-08-23T13:12:45;1.45;;;1.35;;
9409;SDS011;4744;52.576;13.568;2022-08-23T13:15:14;2.30;;;1.80;;
9409;SDS011;4744;52.576;13.568;2022-08-23T13:18:08;2.03;;;1.60;;
9409;SDS011;4744;52.576;13.568;2022-08-23T13:20:35;2.10;;;1.90;;
9409;SDS011;4744;52.576;13.568;2022-08-23T13:23:03;1.90;;;1.70;;
9409;SDS011;4744;52.576;13.568;2022-08-23T13:25:32;2.10;;;1.90;;
9409;SDS011;4744;52.576;13.568;2022-08-23T13:28:00;3.28;;;1.98;;
9409;SDS011;4744;52.576;13.568;2022-08-23T13:30:31;3.50;;;1.73;;
9409;SDS011;4744;52.576;13.568;2022-08-23T13:33:16;4.30;;;1.95;;
9409;SDS011;4744;52.576;13.568;2022-08-23T13:35:45;2.13;;;1.73;;
9409;SDS011;4744;52.576;13.568;2022-08-23T13:38:15;2.28;;;1.92;;
9409;SDS011;4744;52.576;13.568;2022-08-23T13:40:50;3.05;;;1.90;;
9409;SDS011;4744;52.576;13.568;2022-08-23T13:43:21;2.60;;;1.80;;
9409;SDS011;4744;52.576;13.568;2022-08-23T13:45:52;2.55;;;1.95;;
9409;SDS011;4744;52.576;13.568;2022-08-23T13:48:22;2.30;;;2.00;;
9409;SDS011;4744;52.576;13.568;2022-08-23T13:50:50;2.22;;;1.73;;
9409;SDS011;4744;52.576;13.568;2022-08-23T13:53:18;2.13;;;1.60;;
9409;SDS011;4744;52.576;13.568;2022-08-23T13:55:46;1.77;;;1.60;;
9409;SDS011;4744;52.576;13.568;2022-08-23T13:58:16;1.85;;;1.67;;
9409;SDS011;4744;52.576;13.568;2022-08-23T14:00:51;2.17;;;1.83;;
9409;SDS011;4744;52.576;13.568;2022-08-23T14:03:18;2.38;;;1.90;;
9409;SDS011;4744;52.576;13.568;2022-08-23T14:05:45;2.13;;;1.98;;
9409;SDS011;4744;52.576;13.568;2022-08-23T14:08:12;3.38;;;2.20;;
9409;SDS011;4744;52.576;13.568;2022-08-23T14:10:39;2.35;;;2.13;;
9409;SDS011;4744;52.576;13.568;2022-08-23T14:13:06;2.45;;;2.10;;
9409;SDS011;4744;52.576;13.568;2022-08-23T14:15:35;2.75;;;1.90;;
9409;SDS011;4744;52.576;13.568;2022-08-23T14:18:03;3.60;;;1.80;;
9409;SDS011;4744;52.576;13.568;2022-08-23T14:20:30;2.58;;;1.70;;
9409;SDS011;4744;52.576;13.568;2022-08-23T14:22:57;2.55;;;2.00;;
9409;SDS011;4744;52.576;13.568;2022-08-23T14:25:24;2.65;;;2.10;;
9409;SDS011;4744;52.576;13.568;2022-08-23T14:27:51;4.18;;;1.92;;
9409;SDS011;4744;52.576;13.568;2022-08-23T14:30:21;2.10;;;1.90;;
9409;SDS011;4744;52.576;13.568;2022-08-23T14:32:51;2.38;;;2.10;;
9409;SDS011;4744;52.576;13.568;2022-08-23T14:35:19;2.85;;;2.20;;
9409;SDS011;4744;52.576;13.568;2022-08-23T14:37:46;2.45;;;2.28;;
9409;SDS011;4744;52.576;13.568;2022-08-23T14:40:13;2.17;;;2.00;;
9409;SDS011;4744;52.576;13.568;2022-08-23T14:42:41;4.60;;;1.90;;
9409;SDS011;4744;52.576;13.568;2022-08-23T14:45:09;2.65;;;2.20;;
9409;SDS011;4744;52.576;13.568;2022-08-23T14:47:36;2.40;;;2.17;;
9409;SDS011;4744;52.576;13.568;2022-08-23T14:50:05;2.20;;;2.00;;
9409;SDS011;4744;52.576;13.568;2022-08-23T14:52:35;2.97;;;2.10;;
9409;SDS011;4744;52.576;13.568;2022-08-23T14:55:04;3.00;;;2.00;;
9409;SDS011;4744;52.576;13.568;2022-08-23T14:57:32;2.30;;;2.10;;
9409;SDS011;4744;52.576;13.568;2022-08-23T14:59:59;2.33;;;1.80;;
9409;SDS011;4744;52.576;13.568;2022-08-23T15:02:26;2.60;;;1.92;;
9409;SDS011;4744;52.576;13.568;2022-08-23T15:04:54;4.40;;;1.77;;
9409;SDS011;4744;52.576;13.568;2022-08-23T15:07:21;2.55;;;1.65;;
9409;SDS011;4744;52.576;13.568;2022-08-23T15:09:50;3.72;;;1.90;;
9409;SDS011;4744;52.576;13.568;2022-08-23T15:12:19;4.45;;;1.73;;
9409;SDS011;4744;52.576;13.568;2022-08-23T15:14:47;1.83;;;1.73;;
9409;SDS011;4744;52.576;13.568;2022-08-23T15:17:13;1.70;;;1.60;;
9409;SDS011;4744;52.576;13.568;2022-08-23T15:19:40;1.98;;;1.77;;
9409;SDS011;4744;52.576;13.568;2022-08-23T15:22:07;3.28;;;1.98;;
9409;SDS011;4744;52.576;13.568;2022-08-23T15:24:34;3.05;;;1.70;;
9409;SDS011;4744;52.576;13.568;2022-08-23T15:27:04;2.72;;;1.70;;
9409;SDS011;4744;52.576;13.568;2022-08-23T15:29:34;1.70;;;1.60;;
9409;SDS011;4744;52.576;13.568;2022-08-23T15:32:01;3.67;;;1.70;;
9409;SDS011;4744;52.576;13.568;2022-08-23T15:34:28;2.83;;;1.90;;
9409;SDS011;4744;52.576;13.568;2022-08-23T15:36:55;2.50;;;1.90;;
9409;SDS011;4744;52.576;13.568;2022-08-23T15:39:22;2.45;;;1.60;;